sensor_id;sensor_type;location;lat;lon;timestamp;P1;durP1;ratioP1;P2;durP2;ratioP2
51438;SDS011;38816;51.142;-0.974;2023-06-14T00:01:49;217.65;;;203.00;;
51438;SDS011;38816;51.142;-0.974;2023-06-14T00:04:14;219.82;;;205.15;;
51438;SDS011;38816;51.142;-0.974;2023-06-14T00:06:44;219.68;;;205.55;;
51438;SDS011;38816;51.142;-0.974;2023-06-14T00:09:13;213.82;;;199.77;;
51438;SDS011;38816;51.142;-0.974;2023-06-14T00:11:39;220.98;;;206.57;;
51438;SDS011;38816;51.142;-0.974;2023-06-14T00:14:06;219.90;;;205.70;;
51438;SDS011;38816;51.142;-0.974;2023-06-14T00:16:31;215.52;;;201.32;;
51438;SDS011;38816;51.142;-0.974;2023-06-14T00:18:58;213.07;;;199.20;;
51438;SDS011;38816;51.142;-0.974;2023-06-14T00:21:24;211.90;;;197.98;;
51438;SDS011;38816;51.142;-0.974;2023-06-14T00:23:49;208.07;;;194.52;;
51438;SDS011;38816;51.142;-0.974;2023-06-14T00:26:15;213.23;;;199.32;;
51438;SDS011;38816;51.142;-0.974;2023-06-14T00:28:40;213.18;;;199.07;;
51438;SDS011;38816;51.142;-0.974;2023-06-14T00:31:06;209.88;;;196.27;;
51438;SDS011;38816;51.142;-0.974;2023-06-14T00:33:31;205.63;;;192.32;;
51438;SDS011;38816;51.142;-0.974;2023-06-14T00:35:56;210.55;;;196.75;;
51438;SDS011;38816;51.142;-0.974;2023-06-14T00:38:22;207.90;;;194.30;;
51438;SDS011;38816;51.142;-0.974;2023-06-14T00:40:47;210.05;;;196.35;;
51438;SDS011;38816;51.142;-0.974;2023-06-14T00:43:12;205.57;;;191.88;;
51438;SDS011;38816;51.142;-0.974;2023-06-14T00:45:38;210.80;;;196.75;;
51438;SDS011;38816;51.142;-0.974;2023-06-14T00:48:04;207.13;;;193.43;;
51438;SDS011;38816;51.142;-0.974;2023-06-14T00:50:32;203.95;;;190.30;;
51438;SDS011;38816;51.142;-0.974;2023-06-14T00:52:58;209.40;;;195.75;;
51438;SDS011;38816;51.142;-0.974;2023-06-14T00:55:24;200.55;;;187.38;;
51438;SDS011;38816;51.142;-0.974;2023-06-14T00:57:50;204.90;;;191.55;;
51438;SDS011;38816;51.142;-0.974;2023-06-14T01:00:16;201.80;;;188.65;;
51438;SDS011;38816;51.142;-0.974;2023-06-14T01:02:41;198.63;;;185.55;;
51438;SDS011;38816;51.142;-0.974;2023-06-14T01:05:07;198.43;;;185.43;;
51438;SDS011;38816;51.142;-0.974;2023-06-14T01:07:51;201.75;;;188.52;;
51438;SDS011;38816;51.142;-0.974;2023-06-14T01:12:52;196.32;;;182.90;;
51438;SDS011;38816;51.142;-0.974;2023-06-14T01:15:29;187.55;;;175.15;;
51438;SDS011;38816;51.142;-0.974;2023-06-14T01:17:56;198.63;;;185.45;;
51438;SDS011;38816;51.142;-0.974;2023-06-14T01:20:28;189.52;;;177.23;;
51438;SDS011;38816;51.142;-0.974;2023-06-14T01:22:54;183.50;;;171.38;;
51438;SDS011;38816;51.142;-0.974;2023-06-14T01:25:20;185.07;;;172.63;;
51438;SDS011;38816;51.142;-0.974;2023-06-14T01:27:48;183.35;;;171.35;;
51438;SDS011;38816;51.142;-0.974;2023-06-14T01:30:16;186.50;;;173.63;;
51438;SDS011;38816;51.142;-0.974;2023-06-14T01:32:42;183.73;;;171.35;;
51438;SDS011;38816;51.142;-0.974;2023-06-14T01:35:09;184.88;;;172.57;;
51438;SDS011;38816;51.142;-0.974;2023-06-14T01:37:35;184.80;;;172.65;;
51438;SDS011;38816;51.142;-0.974;2023-06-14T01:40:02;182.85;;;170.73;;
51438;SDS011;38816;51.142;-0.974;2023-06-14T01:42:31;189.38;;;176.55;;
51438;SDS011;38816;51.142;-0.974;2023-06-14T01:45:00;185.82;;;173.45;;
51438;SDS011;38816;51.142;-0.974;2023-06-14T01:47:27;187.75;;;175.27;;
51438;SDS011;38816;51.142;-0.974;2023-06-14T01:49:53;189.70;;;177.27;;
51438;SDS011;38816;51.142;-0.974;2023-06-14T01:52:19;190.80;;;177.75;;
51438;SDS011;38816;51.142;-0.974;2023-06-14T01:54:44;189.77;;;177.43;;
51438;SDS011;38816;51.142;-0.974;2023-06-14T01:57:11;186.63;;;174.32;;
51438;SDS011;38816;51.142;-0.974;2023-06-14T01:59:37;181.88;;;169.98;;
51438;SDS011;38816;51.142;-0.974;2023-06-14T02:02:02;182.35;;;170.55;;
51438;SDS011;38816;51.142;-0.974;2023-06-14T02:04:28;180.05;;;168.20;;
51438;SDS011;38816;51.142;-0.974;2023-06-14T02:06:53;179.00;;;167.20;;
51438;SDS011;38816;51.142;-0.974;2023-06-14T02:09:19;180.70;;;168.77;;
51438;SDS011;38816;51.142;-0.974;2023-06-14T02:11:44;175.00;;;163.35;;
51438;SDS011;38816;51.142;-0.974;2023-06-14T02:14:10;177.43;;;165.25;;
51438;SDS011;38816;51.142;-0.974;2023-06-14T02:16:36;179.38;;;167.02;;
51438;SDS011;38816;51.142;-0.974;2023-06-14T02:19:04;179.60;;;167.57;;
51438;SDS011;38816;51.142;-0.974;2023-06-14T02:21:30;174.43;;;162.90;;
51438;SDS011;38816;51.142;-0.974;2023-06-14T02:23:55;181.85;;;170.05;;
51438;SDS011;38816;51.142;-0.974;2023-06-14T02:26:21;177.00;;;165.23;;
51438;SDS011;38816;51.142;-0.974;2023-06-14T02:28:47;174.63;;;163.23;;
51438;SDS011;38816;51.142;-0.974;2023-06-14T02:31:13;174.73;;;163.30;;
51438;SDS011;38816;51.142;-0.974;2023-06-14T02:33:39;177.70;;;166.10;;
51438;SDS011;38816;51.142;-0.974;2023-06-14T02:36:05;179.40;;;167.65;;
51438;SDS011;38816;51.142;-0.974;2023-06-14T02:38:31;176.98;;;165.40;;
51438;SDS011;38816;51.142;-0.974;2023-06-14T02:40:56;179.43;;;167.43;;
51438;SDS011;38816;51.142;-0.974;2023-06-14T02:43:22;178.80;;;166.80;;
51438;SDS011;38816;51.142;-0.974;2023-06-14T02:45:47;176.32;;;164.43;;
51438;SDS011;38816;51.142;-0.974;2023-06-14T02:48:13;179.93;;;167.50;;
51438;SDS011;38816;51.142;-0.974;2023-06-14T02:50:38;181.38;;;168.68;;
51438;SDS011;38816;51.142;-0.974;2023-06-14T02:53:04;177.18;;;165.55;;
51438;SDS011;38816;51.142;-0.974;2023-06-14T02:55:31;176.27;;;164.63;;
51438;SDS011;38816;51.142;-0.974;2023-06-14T02:57:56;174.65;;;163.07;;
51438;SDS011;38816;51.142;-0.974;2023-06-14T03:00:25;177.40;;;165.57;;
51438;SDS011;38816;51.142;-0.974;2023-06-14T03:02:51;179.27;;;167.55;;
51438;SDS011;38816;51.142;-0.974;2023-06-14T03:05:17;180.05;;;168.20;;
51438;SDS011;38816;51.142;-0.974;2023-06-14T03:07:46;178.68;;;166.82;;
51438;SDS011;38816;51.142;-0.974;2023-06-14T03:10:12;177.68;;;166.07;;
51438;SDS011;38816;51.142;-0.974;2023-06-14T03:12:38;175.30;;;163.80;;
51438;SDS011;38816;51.142;-0.974;2023-06-14T03:15:04;167.07;;;155.98;;
51438;SDS011;38816;51.142;-0.974;2023-06-14T03:17:30;176.55;;;164.82;;
51438;SDS011;38816;51.142;-0.974;2023-06-14T03:19:59;176.70;;;165.05;;
51438;SDS011;38816;51.142;-0.974;2023-06-14T03:22:25;176.50;;;164.80;;
51438;SDS011;38816;51.142;-0.974;2023-06-14T03:24:51;179.52;;;167.52;;
51438;SDS011;38816;51.142;-0.974;2023-06-14T03:27:17;174.98;;;163.20;;
51438;SDS011;38816;51.142;-0.974;2023-06-14T03:29:43;174.57;;;163.10;;
51438;SDS011;38816;51.142;-0.974;2023-06-14T03:32:09;171.80;;;160.57;;
51438;SDS011;38816;51.142;-0.974;2023-06-14T03:34:34;176.75;;;165.05;;
51438;SDS011;38816;51.142;-0.974;2023-06-14T03:37:00;175.35;;;163.77;;
51438;SDS011;38816;51.142;-0.974;2023-06-14T03:39:25;173.90;;;162.35;;
51438;SDS011;38816;51.142;-0.974;2023-06-14T03:41:51;171.70;;;160.20;;
51438;SDS011;38816;51.142;-0.974;2023-06-14T03:44:17;172.63;;;160.93;;
51438;SDS011;38816;51.142;-0.974;2023-06-14T03:46:43;172.90;;;161.27;;
51438;SDS011;38816;51.142;-0.974;2023-06-14T03:49:12;172.57;;;161.07;;
51438;SDS011;38816;51.142;-0.974;2023-06-14T03:51:38;171.60;;;160.13;;
51438;SDS011;38816;51.142;-0.974;2023-06-14T03:54:05;172.55;;;161.07;;
51438;SDS011;38816;51.142;-0.974;2023-06-14T03:56:31;174.15;;;162.63;;
51438;SDS011;38816;51.142;-0.974;2023-06-14T03:58:56;177.70;;;165.80;;
51438;SDS011;38816;51.142;-0.974;2023-06-14T04:01:37;176.20;;;164.50;;
51438;SDS011;38816;51.142;-0.974;2023-06-14T04:04:02;174.80;;;162.98;;
51438;SDS011;38816;51.142;-0.974;2023-06-14T04:06:28;177.52;;;165.85;;
51438;SDS011;38816;51.142;-0.974;2023-06-14T04:08:57;177.02;;;165.23;;
51438;SDS011;38816;51.142;-0.974;2023-06-14T04:11:27;174.30;;;162.38;;
51438;SDS011;38816;51.142;-0.974;2023-06-14T04:13:52;178.77;;;166.98;;
51438;SDS011;38816;51.142;-0.974;2023-06-14T04:16:18;182.15;;;169.88;;
51438;SDS011;38816;51.142;-0.974;2023-06-14T04:18:44;176.75;;;164.85;;
51438;SDS011;38816;51.142;-0.974;2023-06-14T04:21:11;175.02;;;163.20;;
51438;SDS011;38816;51.142;-0.974;2023-06-14T04:23:37;176.52;;;165.00;;
51438;SDS011;38816;51.142;-0.974;2023-06-14T04:26:03;180.65;;;168.63;;
51438;SDS011;38816;51.142;-0.974;2023-06-14T04:28:28;179.27;;;167.48;;
51438;SDS011;38816;51.142;-0.974;2023-06-14T04:30:53;179.50;;;167.45;;
51438;SDS011;38816;51.142;-0.974;2023-06-14T04:33:19;184.95;;;172.73;;
51438;SDS011;38816;51.142;-0.974;2023-06-14T04:35:44;179.77;;;167.80;;
51438;SDS011;38816;51.142;-0.974;2023-06-14T04:38:12;180.13;;;167.73;;
51438;SDS011;38816;51.142;-0.974;2023-06-14T04:40:37;181.80;;;169.70;;
51438;SDS011;38816;51.142;-0.974;2023-06-14T04:43:08;181.90;;;169.73;;
51438;SDS011;38816;51.142;-0.974;2023-06-14T04:45:34;184.18;;;171.77;;
51438;SDS011;38816;51.142;-0.974;2023-06-14T04:47:59;190.73;;;177.95;;
51438;SDS011;38816;51.142;-0.974;2023-06-14T04:50:25;192.50;;;179.55;;
51438;SDS011;38816;51.142;-0.974;2023-06-14T04:52:52;192.18;;;179.43;;
51438;SDS011;38816;51.142;-0.974;2023-06-14T04:55:18;192.70;;;180.00;;
51438;SDS011;38816;51.142;-0.974;2023-06-14T04:57:44;192.23;;;179.63;;
51438;SDS011;38816;51.142;-0.974;2023-06-14T05:00:10;199.30;;;186.02;;
51438;SDS011;38816;51.142;-0.974;2023-06-14T05:02:36;197.90;;;184.30;;
51438;SDS011;38816;51.142;-0.974;2023-06-14T05:05:03;195.75;;;182.75;;
51438;SDS011;38816;51.142;-0.974;2023-06-14T05:07:33;201.88;;;188.63;;
51438;SDS011;38816;51.142;-0.974;2023-06-14T05:09:59;201.73;;;188.18;;
51438;SDS011;38816;51.142;-0.974;2023-06-14T05:12:24;199.35;;;186.23;;
51438;SDS011;38816;51.142;-0.974;2023-06-14T05:14:50;205.00;;;191.40;;
51438;SDS011;38816;51.142;-0.974;2023-06-14T05:17:15;202.15;;;188.57;;
51438;SDS011;38816;51.142;-0.974;2023-06-14T05:19:42;201.27;;;188.07;;
51438;SDS011;38816;51.142;-0.974;2023-06-14T05:22:07;202.65;;;189.32;;
51438;SDS011;38816;51.142;-0.974;2023-06-14T05:24:33;199.15;;;186.10;;
51438;SDS011;38816;51.142;-0.974;2023-06-14T05:26:58;206.15;;;192.30;;
51438;SDS011;38816;51.142;-0.974;2023-06-14T05:29:24;204.45;;;190.73;;
51438;SDS011;38816;51.142;-0.974;2023-06-14T05:31:49;204.38;;;191.02;;
51438;SDS011;38816;51.142;-0.974;2023-06-14T05:34:15;206.02;;;192.13;;
51438;SDS011;38816;51.142;-0.974;2023-06-14T05:36:40;209.18;;;195.60;;
51438;SDS011;38816;51.142;-0.974;2023-06-14T05:39:06;211.13;;;197.45;;
51438;SDS011;38816;51.142;-0.974;2023-06-14T05:41:31;209.48;;;194.70;;
51438;SDS011;38816;51.142;-0.974;2023-06-14T05:43:57;211.02;;;197.30;;
51438;SDS011;38816;51.142;-0.974;2023-06-14T05:46:23;215.95;;;201.75;;
51438;SDS011;38816;51.142;-0.974;2023-06-14T05:48:53;212.73;;;198.90;;
51438;SDS011;38816;51.142;-0.974;2023-06-14T05:51:19;216.40;;;202.00;;
51438;SDS011;38816;51.142;-0.974;2023-06-14T05:53:48;214.85;;;200.43;;
51438;SDS011;38816;51.142;-0.974;2023-06-14T05:56:14;219.02;;;204.20;;
51438;SDS011;38816;51.142;-0.974;2023-06-14T05:58:40;220.38;;;205.98;;
51438;SDS011;38816;51.142;-0.974;2023-06-14T06:01:08;226.20;;;211.60;;
51438;SDS011;38816;51.142;-0.974;2023-06-14T06:03:34;222.25;;;207.48;;
51438;SDS011;38816;51.142;-0.974;2023-06-14T06:05:59;224.25;;;209.38;;
51438;SDS011;38816;51.142;-0.974;2023-06-14T06:08:26;224.68;;;209.65;;
51438;SDS011;38816;51.142;-0.974;2023-06-14T06:10:52;227.57;;;212.43;;
51438;SDS011;38816;51.142;-0.974;2023-06-14T06:13:17;229.48;;;214.48;;
51438;SDS011;38816;51.142;-0.974;2023-06-14T06:15:42;229.23;;;214.23;;
51438;SDS011;38816;51.142;-0.974;2023-06-14T06:18:08;228.88;;;213.75;;
51438;SDS011;38816;51.142;-0.974;2023-06-14T06:20:33;230.60;;;215.70;;
51438;SDS011;38816;51.142;-0.974;2023-06-14T06:22:59;229.82;;;214.80;;
51438;SDS011;38816;51.142;-0.974;2023-06-14T06:25:25;234.60;;;219.35;;
51438;SDS011;38816;51.142;-0.974;2023-06-14T06:27:56;235.65;;;220.55;;
51438;SDS011;38816;51.142;-0.974;2023-06-14T06:30:23;236.30;;;220.70;;
51438;SDS011;38816;51.142;-0.974;2023-06-14T06:32:49;227.60;;;212.43;;
51438;SDS011;38816;51.142;-0.974;2023-06-14T06:35:15;236.85;;;221.43;;
51438;SDS011;38816;51.142;-0.974;2023-06-14T06:37:41;231.45;;;216.15;;
51438;SDS011;38816;51.142;-0.974;2023-06-14T06:40:07;238.77;;;222.93;;
51438;SDS011;38816;51.142;-0.974;2023-06-14T06:42:33;235.73;;;220.13;;
51438;SDS011;38816;51.142;-0.974;2023-06-14T06:44:59;241.43;;;225.68;;
51438;SDS011;38816;51.142;-0.974;2023-06-14T06:47:24;238.32;;;222.57;;
51438;SDS011;38816;51.142;-0.974;2023-06-14T06:49:50;245.27;;;229.52;;
51438;SDS011;38816;51.142;-0.974;2023-06-14T06:52:15;238.88;;;223.00;;
51438;SDS011;38816;51.142;-0.974;2023-06-14T06:54:41;239.40;;;223.77;;
51438;SDS011;38816;51.142;-0.974;2023-06-14T06:57:06;250.20;;;233.30;;
51438;SDS011;38816;51.142;-0.974;2023-06-14T06:59:32;252.85;;;236.10;;
51438;SDS011;38816;51.142;-0.974;2023-06-14T07:01:58;241.48;;;225.52;;
51438;SDS011;38816;51.142;-0.974;2023-06-14T07:04:24;245.93;;;230.18;;
51438;SDS011;38816;51.142;-0.974;2023-06-14T07:06:49;249.82;;;233.40;;
51438;SDS011;38816;51.142;-0.974;2023-06-14T07:09:15;254.75;;;238.35;;
51438;SDS011;38816;51.142;-0.974;2023-06-14T07:11:43;251.48;;;234.88;;
51438;SDS011;38816;51.142;-0.974;2023-06-14T07:14:10;256.95;;;240.32;;
51438;SDS011;38816;51.142;-0.974;2023-06-14T07:16:36;252.57;;;236.10;;
51438;SDS011;38816;51.142;-0.974;2023-06-14T07:19:02;255.13;;;238.13;;
51438;SDS011;38816;51.142;-0.974;2023-06-14T07:21:28;255.05;;;238.32;;
51438;SDS011;38816;51.142;-0.974;2023-06-14T07:23:54;253.48;;;236.45;;
51438;SDS011;38816;51.142;-0.974;2023-06-14T07:26:20;256.63;;;239.43;;
51438;SDS011;38816;51.142;-0.974;2023-06-14T07:28:46;256.88;;;240.15;;
51438;SDS011;38816;51.142;-0.974;2023-06-14T07:31:12;253.45;;;237.02;;
51438;SDS011;38816;51.142;-0.974;2023-06-14T07:33:39;255.18;;;238.57;;
51438;SDS011;38816;51.142;-0.974;2023-06-14T07:36:05;258.42;;;241.73;;
51438;SDS011;38816;51.142;-0.974;2023-06-14T07:38:30;260.58;;;243.18;;
51438;SDS011;38816;51.142;-0.974;2023-06-14T07:40:56;256.15;;;239.38;;
51438;SDS011;38816;51.142;-0.974;2023-06-14T07:43:21;256.33;;;239.65;;
51438;SDS011;38816;51.142;-0.974;2023-06-14T07:45:47;263.23;;;246.20;;
51438;SDS011;38816;51.142;-0.974;2023-06-14T07:48:12;264.98;;;247.25;;
51438;SDS011;38816;51.142;-0.974;2023-06-14T07:50:37;261.85;;;244.45;;
51438;SDS011;38816;51.142;-0.974;2023-06-14T07:53:03;261.73;;;244.15;;
51438;SDS011;38816;51.142;-0.974;2023-06-14T07:55:28;264.23;;;247.05;;
51438;SDS011;38816;51.142;-0.974;2023-06-14T07:57:54;267.65;;;249.73;;
51438;SDS011;38816;51.142;-0.974;2023-06-14T08:00:19;268.77;;;251.38;;
51438;SDS011;38816;51.142;-0.974;2023-06-14T08:02:45;269.45;;;251.65;;
51438;SDS011;38816;51.142;-0.974;2023-06-14T08:05:11;279.52;;;261.23;;
51438;SDS011;38816;51.142;-0.974;2023-06-14T08:07:37;275.92;;;257.65;;
51438;SDS011;38816;51.142;-0.974;2023-06-14T08:10:04;279.48;;;260.75;;
51438;SDS011;38816;51.142;-0.974;2023-06-14T08:12:31;285.23;;;266.50;;
51438;SDS011;38816;51.142;-0.974;2023-06-14T08:14:56;277.77;;;259.38;;
51438;SDS011;38816;51.142;-0.974;2023-06-14T08:17:22;277.25;;;259.15;;
51438;SDS011;38816;51.142;-0.974;2023-06-14T08:19:47;273.33;;;255.45;;
51438;SDS011;38816;51.142;-0.974;2023-06-14T08:22:13;280.88;;;262.30;;
51438;SDS011;38816;51.142;-0.974;2023-06-14T08:24:38;270.58;;;252.85;;
51438;SDS011;38816;51.142;-0.974;2023-06-14T08:27:04;278.45;;;259.92;;
51438;SDS011;38816;51.142;-0.974;2023-06-14T08:29:31;276.00;;;257.77;;
51438;SDS011;38816;51.142;-0.974;2023-06-14T08:31:56;279.77;;;261.45;;
51438;SDS011;38816;51.142;-0.974;2023-06-14T08:34:21;276.63;;;258.35;;
51438;SDS011;38816;51.142;-0.974;2023-06-14T08:36:48;281.45;;;263.30;;
51438;SDS011;38816;51.142;-0.974;2023-06-14T08:39:15;267.98;;;250.30;;
51438;SDS011;38816;51.142;-0.974;2023-06-14T08:41:41;276.73;;;258.45;;
51438;SDS011;38816;51.142;-0.974;2023-06-14T08:44:08;270.42;;;252.50;;
51438;SDS011;38816;51.142;-0.974;2023-06-14T08:46:33;277.25;;;259.08;;
51438;SDS011;38816;51.142;-0.974;2023-06-14T08:49:01;277.02;;;258.77;;
51438;SDS011;38816;51.142;-0.974;2023-06-14T08:51:27;276.50;;;257.88;;
51438;SDS011;38816;51.142;-0.974;2023-06-14T08:53:59;277.63;;;259.00;;
51438;SDS011;38816;51.142;-0.974;2023-06-14T08:56:27;279.75;;;261.25;;
51438;SDS011;38816;51.142;-0.974;2023-06-14T08:58:54;267.98;;;250.40;;
51438;SDS011;38816;51.142;-0.974;2023-06-14T09:01:21;268.40;;;250.73;;
51438;SDS011;38816;51.142;-0.974;2023-06-14T09:03:48;268.52;;;250.90;;
51438;SDS011;38816;51.142;-0.974;2023-06-14T09:06:14;268.50;;;250.57;;
51438;SDS011;38816;51.142;-0.974;2023-06-14T09:08:41;276.10;;;258.15;;
51438;SDS011;38816;51.142;-0.974;2023-06-14T09:11:08;274.45;;;256.10;;
51438;SDS011;38816;51.142;-0.974;2023-06-14T09:13:36;276.42;;;258.33;;
51438;SDS011;38816;51.142;-0.974;2023-06-14T09:16:01;271.65;;;254.07;;
51438;SDS011;38816;51.142;-0.974;2023-06-14T09:18:40;270.38;;;252.57;;
51438;SDS011;38816;51.142;-0.974;2023-06-14T09:21:11;282.52;;;264.20;;
51438;SDS011;38816;51.142;-0.974;2023-06-14T09:23:41;277.52;;;259.27;;
51438;SDS011;38816;51.142;-0.974;2023-06-14T09:26:08;280.10;;;261.85;;
51438;SDS011;38816;51.142;-0.974;2023-06-14T09:28:34;281.23;;;262.52;;
51438;SDS011;38816;51.142;-0.974;2023-06-14T09:31:00;274.25;;;256.15;;
51438;SDS011;38816;51.142;-0.974;2023-06-14T09:33:26;277.00;;;257.90;;
51438;SDS011;38816;51.142;-0.974;2023-06-14T09:35:53;281.27;;;262.73;;
51438;SDS011;38816;51.142;-0.974;2023-06-14T09:38:19;277.70;;;259.00;;
51438;SDS011;38816;51.142;-0.974;2023-06-14T09:40:45;277.30;;;258.23;;
51438;SDS011;38816;51.142;-0.974;2023-06-14T09:43:10;274.85;;;256.25;;
51438;SDS011;38816;51.142;-0.974;2023-06-14T09:45:36;285.48;;;266.15;;
51438;SDS011;38816;51.142;-0.974;2023-06-14T09:48:05;277.65;;;259.10;;
51438;SDS011;38816;51.142;-0.974;2023-06-14T09:50:32;281.45;;;262.40;;
51438;SDS011;38816;51.142;-0.974;2023-06-14T09:53:00;278.67;;;260.20;;
51438;SDS011;38816;51.142;-0.974;2023-06-14T09:55:30;275.85;;;257.85;;
51438;SDS011;38816;51.142;-0.974;2023-06-14T09:57:59;276.63;;;258.52;;
51438;SDS011;38816;51.142;-0.974;2023-06-14T10:00:29;284.83;;;266.35;;
51438;SDS011;38816;51.142;-0.974;2023-06-14T10:02:58;279.45;;;260.98;;
51438;SDS011;38816;51.142;-0.974;2023-06-14T10:05:28;278.85;;;260.13;;
51438;SDS011;38816;51.142;-0.974;2023-06-14T10:08:03;279.85;;;261.48;;
51438;SDS011;38816;51.142;-0.974;2023-06-14T10:10:32;278.13;;;259.67;;
51438;SDS011;38816;51.142;-0.974;2023-06-14T10:12:57;284.35;;;265.73;;
51438;SDS011;38816;51.142;-0.974;2023-06-14T10:15:26;278.13;;;259.75;;
51438;SDS011;38816;51.142;-0.974;2023-06-14T10:18:09;283.38;;;264.75;;
51438;SDS011;38816;51.142;-0.974;2023-06-14T10:20:51;283.90;;;265.25;;
51438;SDS011;38816;51.142;-0.974;2023-06-14T10:23:24;279.67;;;261.42;;
51438;SDS011;38816;51.142;-0.974;2023-06-14T10:25:50;279.33;;;260.50;;
51438;SDS011;38816;51.142;-0.974;2023-06-14T10:28:21;281.08;;;262.45;;
51438;SDS011;38816;51.142;-0.974;2023-06-14T10:31:02;275.95;;;257.95;;
51438;SDS011;38816;51.142;-0.974;2023-06-14T10:33:34;285.52;;;266.25;;
51438;SDS011;38816;51.142;-0.974;2023-06-14T10:41:31;276.90;;;258.95;;
51438;SDS011;38816;51.142;-0.974;2023-06-14T10:46:40;279.05;;;260.50;;
51438;SDS011;38816;51.142;-0.974;2023-06-14T10:49:10;282.00;;;263.17;;
51438;SDS011;38816;51.142;-0.974;2023-06-14T10:51:40;277.23;;;258.75;;
51438;SDS011;38816;51.142;-0.974;2023-06-14T10:54:20;272.63;;;254.63;;
51438;SDS011;38816;51.142;-0.974;2023-06-14T10:56:46;282.33;;;263.70;;
51438;SDS011;38816;51.142;-0.974;2023-06-14T10:59:13;283.42;;;264.70;;
51438;SDS011;38816;51.142;-0.974;2023-06-14T11:05:08;278.85;;;260.58;;
51438;SDS011;38816;51.142;-0.974;2023-06-14T11:13:16;282.55;;;264.00;;
51438;SDS011;38816;51.142;-0.974;2023-06-14T11:15:45;277.98;;;259.42;;
51438;SDS011;38816;51.142;-0.974;2023-06-14T11:18:13;287.00;;;268.42;;
51438;SDS011;38816;51.142;-0.974;2023-06-14T11:20:40;269.75;;;252.10;;
51438;SDS011;38816;51.142;-0.974;2023-06-14T11:23:05;292.20;;;273.23;;
51438;SDS011;38816;51.142;-0.974;2023-06-14T11:25:31;292.85;;;273.67;;
51438;SDS011;38816;51.142;-0.974;2023-06-14T11:27:57;289.27;;;270.33;;
51438;SDS011;38816;51.142;-0.974;2023-06-14T11:30:23;284.00;;;265.48;;
51438;SDS011;38816;51.142;-0.974;2023-06-14T11:32:49;275.77;;;257.83;;
51438;SDS011;38816;51.142;-0.974;2023-06-14T11:35:17;280.73;;;262.02;;
51438;SDS011;38816;51.142;-0.974;2023-06-14T11:37:43;279.88;;;261.63;;
51438;SDS011;38816;51.142;-0.974;2023-06-14T11:40:09;288.55;;;269.48;;
51438;SDS011;38816;51.142;-0.974;2023-06-14T11:42:36;279.90;;;261.65;;
51438;SDS011;38816;51.142;-0.974;2023-06-14T11:45:03;295.95;;;276.48;;
51438;SDS011;38816;51.142;-0.974;2023-06-14T11:47:32;287.63;;;268.85;;
51438;SDS011;38816;51.142;-0.974;2023-06-14T11:49:59;294.98;;;275.90;;
51438;SDS011;38816;51.142;-0.974;2023-06-14T11:52:24;280.50;;;262.20;;
51438;SDS011;38816;51.142;-0.974;2023-06-14T11:54:50;291.13;;;271.98;;
51438;SDS011;38816;51.142;-0.974;2023-06-14T11:57:17;283.92;;;265.33;;
51438;SDS011;38816;51.142;-0.974;2023-06-14T11:59:43;285.58;;;267.08;;
51438;SDS011;38816;51.142;-0.974;2023-06-14T12:02:13;279.15;;;260.60;;
51438;SDS011;38816;51.142;-0.974;2023-06-14T12:04:48;283.23;;;264.83;;
51438;SDS011;38816;51.142;-0.974;2023-06-14T12:07:14;290.73;;;271.65;;
51438;SDS011;38816;51.142;-0.974;2023-06-14T12:10:04;292.13;;;272.83;;
51438;SDS011;38816;51.142;-0.974;2023-06-14T12:12:34;288.90;;;270.02;;
51438;SDS011;38816;51.142;-0.974;2023-06-14T12:15:03;291.80;;;272.50;;
51438;SDS011;38816;51.142;-0.974;2023-06-14T12:17:34;280.65;;;261.73;;
51438;SDS011;38816;51.142;-0.974;2023-06-14T12:20:11;287.65;;;268.70;;
51438;SDS011;38816;51.142;-0.974;2023-06-14T12:22:52;277.58;;;259.52;;
51438;SDS011;38816;51.142;-0.974;2023-06-14T12:25:26;289.00;;;269.80;;
51438;SDS011;38816;51.142;-0.974;2023-06-14T12:27:52;278.15;;;259.98;;
51438;SDS011;38816;51.142;-0.974;2023-06-14T12:30:21;284.75;;;266.38;;
51438;SDS011;38816;51.142;-0.974;2023-06-14T12:32:46;291.60;;;272.10;;
51438;SDS011;38816;51.142;-0.974;2023-06-14T12:35:12;284.58;;;265.88;;
51438;SDS011;38816;51.142;-0.974;2023-06-14T12:37:37;290.92;;;271.23;;
51438;SDS011;38816;51.142;-0.974;2023-06-14T12:40:03;281.30;;;262.88;;
51438;SDS011;38816;51.142;-0.974;2023-06-14T12:42:31;278.17;;;260.00;;
51438;SDS011;38816;51.142;-0.974;2023-06-14T12:44:56;281.00;;;262.58;;
51438;SDS011;38816;51.142;-0.974;2023-06-14T12:47:22;281.50;;;263.23;;
51438;SDS011;38816;51.142;-0.974;2023-06-14T12:49:47;293.45;;;274.25;;
51438;SDS011;38816;51.142;-0.974;2023-06-14T12:52:12;280.17;;;262.05;;
51438;SDS011;38816;51.142;-0.974;2023-06-14T12:54:38;285.65;;;267.15;;
51438;SDS011;38816;51.142;-0.974;2023-06-14T12:57:04;288.48;;;269.83;;
51438;SDS011;38816;51.142;-0.974;2023-06-14T12:59:30;286.00;;;267.30;;
51438;SDS011;38816;51.142;-0.974;2023-06-14T13:01:59;276.45;;;258.55;;
51438;SDS011;38816;51.142;-0.974;2023-06-14T13:04:34;285.45;;;266.85;;
51438;SDS011;38816;51.142;-0.974;2023-06-14T13:06:59;291.90;;;272.95;;
51438;SDS011;38816;51.142;-0.974;2023-06-14T13:09:25;275.33;;;257.45;;
51438;SDS011;38816;51.142;-0.974;2023-06-14T13:11:51;276.88;;;258.58;;
51438;SDS011;38816;51.142;-0.974;2023-06-14T13:14:17;272.77;;;254.68;;
51438;SDS011;38816;51.142;-0.974;2023-06-14T13:16:42;280.13;;;261.80;;
51438;SDS011;38816;51.142;-0.974;2023-06-14T13:19:08;277.17;;;259.17;;
51438;SDS011;38816;51.142;-0.974;2023-06-14T13:21:33;284.60;;;265.98;;
51438;SDS011;38816;51.142;-0.974;2023-06-14T13:23:58;279.90;;;260.95;;
51438;SDS011;38816;51.142;-0.974;2023-06-14T13:26:24;282.48;;;264.00;;
51438;SDS011;38816;51.142;-0.974;2023-06-14T13:28:50;282.52;;;263.80;;
51438;SDS011;38816;51.142;-0.974;2023-06-14T13:31:16;275.83;;;257.90;;
51438;SDS011;38816;51.142;-0.974;2023-06-14T13:33:41;274.92;;;257.02;;
51438;SDS011;38816;51.142;-0.974;2023-06-14T13:36:07;277.00;;;258.92;;
51438;SDS011;38816;51.142;-0.974;2023-06-14T13:38:32;275.50;;;257.70;;
51438;SDS011;38816;51.142;-0.974;2023-06-14T13:40:58;284.20;;;266.02;;
51438;SDS011;38816;51.142;-0.974;2023-06-14T13:43:23;268.50;;;251.00;;
51438;SDS011;38816;51.142;-0.974;2023-06-14T13:45:48;273.45;;;255.45;;
51438;SDS011;38816;51.142;-0.974;2023-06-14T13:48:14;268.80;;;251.52;;
51438;SDS011;38816;51.142;-0.974;2023-06-14T13:50:39;269.27;;;251.75;;
51438;SDS011;38816;51.142;-0.974;2023-06-14T13:53:05;273.92;;;256.13;;
51438;SDS011;38816;51.142;-0.974;2023-06-14T13:55:30;269.92;;;252.38;;
51438;SDS011;38816;51.142;-0.974;2023-06-14T13:57:56;262.70;;;245.73;;
51438;SDS011;38816;51.142;-0.974;2023-06-14T14:00:22;270.38;;;252.95;;
51438;SDS011;38816;51.142;-0.974;2023-06-14T14:02:48;284.85;;;266.33;;